Impacts METAR Board INFO
IDs:

KEAU - Eau Claire/Chippewa, WI, US

Updated at: 1747 UTC 21 Oct 2017
Potential Impact None Slight Moderate High
Time21/05Z 21/06Z 21/07Z 21/08Z 21/09Z 21/10Z 21/11Z 21/12Z 21/13Z 21/14Z 21/15Z 21/16Z 21/17Z
VIS10 10 10 10 10 10 10 10 10 10 6 10 9
CIG-- -- -- -- 60 -- -- -- 32 100 100 90 23
CoverCLRFEWCLRCLRBKNCLRSCTSCTOVCOVCOVCOVCOVC
FltCatVFRVFRVFRVFRVFRVFRVFRVFRVFRVFRVFRVFRMVFR
WX----------------VCTS -RA--VCTS -RA BRTS--
WDir190190170180170150160160170170180160180
WSpd12 11 11 8 7 9 14 11 11 9 12 10 9
WGst-- -- -- -- -- -- -- -- -- -- -- -- --
Raw hourly METARs
KEAU 210456Z AUTO 19012KT 10SM CLR 19/06 A2982 RMK AO2 SLP093 T01890056
KEAU 210556Z AUTO 19011KT 10SM FEW120 19/07 A2983 RMK AO2 SLP096 T01890072 10206 20183 402500050 53004
KEAU 210656Z AUTO 17011KT 10SM CLR 18/07 A2982 RMK AO2 SLP093 T01830072
KEAU 210756Z AUTO 18008KT 10SM CLR 17/08 A2981 RMK AO2 SLP091 T01720078
KEAU 210856Z AUTO 17007KT 10SM BKN060 17/08 A2979 RMK AO2 SLP086 T01720083 58010
KEAU 210956Z AUTO 15009KT 10SM CLR 16/09 A2978 RMK AO2 SLP081 T01610089
KEAU 211056Z 16014KT 10SM SCT055 16/09 A2977 RMK AO2 SLP079 T01610094
KEAU 211156Z 16011KT 10SM FEW055 SCT070 16/09 A2977 RMK AO2 SLP079 T01610094 10189 20161 56007
KEAU 211256Z 17011KT 10SM VCTS -RA BKN032 OVC046 16/11 A2981 RMK AO2 LTG DSNT S-NW RAB46 SLP091 P0000 T01560111
KEAU 211356Z 17009KT 10SM SCT032 BKN100 OVC120 15/13 A2982 RMK AO2 RAE36 SLP095 P0004 T01500128
KEAU 211456Z 18012KT 6SM VCTS -RA BR FEW028 OVC100 15/13 A2980 RMK AO2 RAB16 SLP092 P0005 60009 T01500133 50003
KEAU 211556Z 16010KT 10SM TS FEW029 BKN090 OVC110 16/13 A2979 RMK AO2 LTG DSNT NE RAE14B33E51 TSB44 SLP084 P0006 T01560133
KEAU 211656Z 18009KT 9SM OVC023 17/14 A2980 RMK AO2 LTG DSNT SE RAB1558E16 TSE07 SLP091 P0001 T01670144